sensor_id;sensor_type;location;lat;lon;timestamp;pressure;altitude;pressure_sealevel;temperature;humidity
38620;BME280;24376;51.986;4.662;2022-11-15T00:02:15;106049.66;;;7.38;100.00
38620;BME280;24376;51.986;4.662;2022-11-15T00:04:40;106061.53;;;7.36;100.00
38620;BME280;24376;51.986;4.662;2022-11-15T00:07:05;106095.28;;;7.41;100.00
38620;BME280;24376;51.986;4.662;2022-11-15T00:09:30;106093.81;;;7.36;100.00
38620;BME280;24376;51.986;4.662;2022-11-15T00:11:55;106127.16;;;7.39;100.00
38620;BME280;24376;51.986;4.662;2022-11-15T00:14:20;106152.13;;;7.37;100.00
38620;BME280;24376;51.986;4.662;2022-11-15T00:16:46;106167.94;;;7.38;100.00
38620;BME280;24376;51.986;4.662;2022-11-15T00:19:11;106192.53;;;7.40;100.00
38620;BME280;24376;51.986;4.662;2022-11-15T00:21:36;106227.75;;;7.37;100.00
38620;BME280;24376;51.986;4.662;2022-11-15T00:24:01;106266.50;;;7.41;100.00
38620;BME280;24376;51.986;4.662;2022-11-15T00:26:26;106304.38;;;7.44;100.00
38620;BME280;24376;51.986;4.662;2022-11-15T00:28:52;106307.16;;;7.46;100.00
38620;BME280;24376;51.986;4.662;2022-11-15T00:31:17;106338.47;;;7.46;100.00
38620;BME280;24376;51.986;4.662;2022-11-15T00:33:43;106360.81;;;7.44;100.00
38620;BME280;24376;51.986;4.662;2022-11-15T00:36:08;106395.47;;;7.43;100.00
38620;BME280;24376;51.986;4.662;2022-11-15T00:38:35;106424.75;;;7.47;100.00
38620;BME280;24376;51.986;4.662;2022-11-15T00:41:00;106432.78;;;7.49;100.00
38620;BME280;24376;51.986;4.662;2022-11-15T00:43:26;106450.84;;;7.47;100.00
38620;BME280;24376;51.986;4.662;2022-11-15T00:45:51;106500.47;;;7.55;100.00
38620;BME280;24376;51.986;4.662;2022-11-15T00:48:16;106509.25;;;7.55;100.00
38620;BME280;24376;51.986;4.662;2022-11-15T00:50:42;106536.09;;;7.54;100.00
38620;BME280;24376;51.986;4.662;2022-11-15T00:53:07;106544.09;;;7.56;100.00
38620;BME280;24376;51.986;4.662;2022-11-15T00:55:32;106587.16;;;7.59;100.00
38620;BME280;24376;51.986;4.662;2022-11-15T00:57:57;106615.53;;;7.63;100.00
38620;BME280;24376;51.986;4.662;2022-11-15T01:00:22;106649.88;;;7.66;100.00
38620;BME280;24376;51.986;4.662;2022-11-15T01:02:48;106676.19;;;7.68;100.00
38620;BME280;24376;51.986;4.662;2022-11-15T01:05:13;106693.91;;;7.70;100.00
38620;BME280;24376;51.986;4.662;2022-11-15T01:07:38;106714.06;;;7.71;100.00
38620;BME280;24376;51.986;4.662;2022-11-15T01:10:03;106696.50;;;7.70;100.00
38620;BME280;24376;51.986;4.662;2022-11-15T01:12:28;106717.25;;;7.76;100.00
38620;BME280;24376;51.986;4.662;2022-11-15T01:14:54;106740.56;;;7.74;100.00
38620;BME280;24376;51.986;4.662;2022-11-15T01:17:19;106769.47;;;7.76;100.00
38620;BME280;24376;51.986;4.662;2022-11-15T01:19:44;106796.00;;;7.79;100.00
38620;BME280;24376;51.986;4.662;2022-11-15T01:22:09;106822.47;;;7.82;100.00
38620;BME280;24376;51.986;4.662;2022-11-15T01:24:34;106831.28;;;7.83;100.00
38620;BME280;24376;51.986;4.662;2022-11-15T01:27:00;106857.03;;;7.87;100.00
38620;BME280;24376;51.986;4.662;2022-11-15T01:29:25;106872.19;;;7.89;100.00
38620;BME280;24376;51.986;4.662;2022-11-15T01:31:50;106906.53;;;7.92;100.00
38620;BME280;24376;51.986;4.662;2022-11-15T01:34:17;106925.75;;;7.93;100.00
38620;BME280;24376;51.986;4.662;2022-11-15T01:36:42;106944.84;;;7.99;100.00
38620;BME280;24376;51.986;4.662;2022-11-15T01:39:07;106963.56;;;8.02;100.00
38620;BME280;24376;51.986;4.662;2022-11-15T01:41:33;106991.97;;;8.06;100.00
38620;BME280;24376;51.986;4.662;2022-11-15T01:46:59;107006.06;;;8.14;98.22
38620;BME280;24376;51.986;4.662;2022-11-15T01:49:26;107018.91;;;8.12;98.18
38620;BME280;24376;51.986;4.662;2022-11-15T01:51:52;106997.69;;;8.16;96.33
38620;BME280;24376;51.986;4.662;2022-11-15T01:54:19;106995.59;;;8.14;97.45
38620;BME280;24376;51.986;4.662;2022-11-15T01:56:46;107000.72;;;8.19;96.43
38620;BME280;24376;51.986;4.662;2022-11-15T01:59:15;107022.00;;;8.22;94.51
38620;BME280;24376;51.986;4.662;2022-11-15T02:01:41;107036.75;;;8.22;93.04
38620;BME280;24376;51.986;4.662;2022-11-15T02:04:08;107048.56;;;8.25;92.42
38620;BME280;24376;51.986;4.662;2022-11-15T02:06:35;107063.19;;;8.31;91.64
38620;BME280;24376;51.986;4.662;2022-11-15T02:09:00;107071.03;;;8.31;90.57
38620;BME280;24376;51.986;4.662;2022-11-15T02:11:26;107078.25;;;8.39;90.16
38620;BME280;24376;51.986;4.662;2022-11-15T02:13:51;107098.41;;;8.40;87.38
38620;BME280;24376;51.986;4.662;2022-11-15T02:18:59;107090.47;;;8.45;87.06
38620;BME280;24376;51.986;4.662;2022-11-15T02:21:41;107094.13;;;8.53;86.96
38620;BME280;24376;51.986;4.662;2022-11-15T02:29:18;107147.53;;;8.55;84.55
38620;BME280;24376;51.986;4.662;2022-11-15T02:31:56;107130.06;;;8.61;84.25
38620;BME280;24376;51.986;4.662;2022-11-15T02:34:27;107138.66;;;8.60;83.88
38620;BME280;24376;51.986;4.662;2022-11-15T02:36:58;107167.09;;;8.64;82.37
38620;BME280;24376;51.986;4.662;2022-11-15T02:41:52;107193.13;;;8.70;82.05
38620;BME280;24376;51.986;4.662;2022-11-15T02:44:21;107219.28;;;8.70;81.35
38620;BME280;24376;51.986;4.662;2022-11-15T02:46:59;107241.97;;;8.76;81.07
38620;BME280;24376;51.986;4.662;2022-11-15T02:49:48;107258.78;;;8.78;80.18
38620;BME280;24376;51.986;4.662;2022-11-15T02:52:15;107210.03;;;8.79;80.68
38620;BME280;24376;51.986;4.662;2022-11-15T02:54:41;107242.78;;;8.83;80.03
38620;BME280;24376;51.986;4.662;2022-11-15T02:57:07;107257.00;;;8.85;79.67
38620;BME280;24376;51.986;4.662;2022-11-15T03:04:54;107269.88;;;8.96;78.27
38620;BME280;24376;51.986;4.662;2022-11-15T03:07:38;107290.88;;;9.03;77.69
38620;BME280;24376;51.986;4.662;2022-11-15T03:12:38;107348.53;;;9.10;76.47
38620;BME280;24376;51.986;4.662;2022-11-15T03:15:15;107371.78;;;9.14;76.21
38620;BME280;24376;51.986;4.662;2022-11-15T03:17:58;107368.66;;;9.17;76.73
38620;BME280;24376;51.986;4.662;2022-11-15T03:20:25;107404.75;;;9.19;75.66
38620;BME280;24376;51.986;4.662;2022-11-15T03:22:52;107420.66;;;9.21;76.25
38620;BME280;24376;51.986;4.662;2022-11-15T03:25:19;107465.78;;;9.25;74.81
38620;BME280;24376;51.986;4.662;2022-11-15T03:27:47;107496.34;;;9.32;74.51
38620;BME280;24376;51.986;4.662;2022-11-15T03:30:14;107512.59;;;9.29;74.33
38620;BME280;24376;51.986;4.662;2022-11-15T03:32:44;107528.19;;;9.35;74.16
38620;BME280;24376;51.986;4.662;2022-11-15T03:35:15;107396.38;;;9.35;74.73
38620;BME280;24376;51.986;4.662;2022-11-15T03:37:48;107399.94;;;9.35;78.00
38620;BME280;24376;51.986;4.662;2022-11-15T03:40:16;107473.31;;;9.42;73.80
38620;BME280;24376;51.986;4.662;2022-11-15T03:43:02;107488.09;;;9.42;73.88
38620;BME280;24376;51.986;4.662;2022-11-15T03:45:33;107495.63;;;9.46;73.43
38620;BME280;24376;51.986;4.662;2022-11-15T03:48:10;107502.75;;;9.47;73.61
38620;BME280;24376;51.986;4.662;2022-11-15T03:50:37;107521.91;;;9.53;73.08
38620;BME280;24376;51.986;4.662;2022-11-15T03:53:03;107547.06;;;9.58;72.84
38620;BME280;24376;51.986;4.662;2022-11-15T03:55:28;107550.31;;;9.63;72.85
38620;BME280;24376;51.986;4.662;2022-11-15T03:57:54;107591.38;;;9.69;72.58
38620;BME280;24376;51.986;4.662;2022-11-15T04:00:21;107622.63;;;9.80;72.17
38620;BME280;24376;51.986;4.662;2022-11-15T04:02:46;107640.63;;;9.84;72.11
38620;BME280;24376;51.986;4.662;2022-11-15T04:07:57;107662.41;;;9.91;71.45
38620;BME280;24376;51.986;4.662;2022-11-15T04:10:22;107659.59;;;9.89;71.42
38620;BME280;24376;51.986;4.662;2022-11-15T04:12:47;107703.94;;;9.88;70.86
38620;BME280;24376;51.986;4.662;2022-11-15T04:15:14;107681.78;;;9.85;71.17
38620;BME280;24376;51.986;4.662;2022-11-15T04:17:44;107681.09;;;9.86;71.16
38620;BME280;24376;51.986;4.662;2022-11-15T04:20:12;107688.50;;;9.83;71.16
38620;BME280;24376;51.986;4.662;2022-11-15T04:22:57;107732.06;;;9.70;71.37
38620;BME280;24376;51.986;4.662;2022-11-15T04:25:41;107864.72;;;9.70;70.48
38620;BME280;24376;51.986;4.662;2022-11-15T04:28:07;107926.97;;;9.59;70.27
38620;BME280;24376;51.986;4.662;2022-11-15T04:30:32;108064.25;;;9.67;69.45
38620;BME280;24376;51.986;4.662;2022-11-15T04:32:57;108139.47;;;9.68;69.10
38620;BME280;24376;51.986;4.662;2022-11-15T04:35:23;108434.25;;;9.77;68.07
38620;BME280;24376;51.986;4.662;2022-11-15T04:37:48;108367.59;;;9.75;68.50
38620;BME280;24376;51.986;4.662;2022-11-15T04:40:13;108388.56;;;9.75;68.33
38620;BME280;24376;51.986;4.662;2022-11-15T04:42:40;108374.97;;;9.72;68.27
38620;BME280;24376;51.986;4.662;2022-11-15T04:45:05;108342.81;;;9.73;68.28
38620;BME280;24376;51.986;4.662;2022-11-15T04:47:30;108097.03;;;9.76;68.66
38620;BME280;24376;51.986;4.662;2022-11-15T04:49:55;108187.09;;;9.71;68.42
38620;BME280;24376;51.986;4.662;2022-11-15T04:52:21;108322.03;;;9.86;67.95
38620;BME280;24376;51.986;4.662;2022-11-15T04:54:46;108336.25;;;9.94;67.81
38620;BME280;24376;51.986;4.662;2022-11-15T04:57:11;108313.16;;;9.91;67.80
38620;BME280;24376;51.986;4.662;2022-11-15T04:59:36;108354.34;;;9.98;67.63
38620;BME280;24376;51.986;4.662;2022-11-15T05:02:01;108370.09;;;9.98;67.52
38620;BME280;24376;51.986;4.662;2022-11-15T05:04:26;108380.28;;;10.02;67.41
38620;BME280;24376;51.986;4.662;2022-11-15T05:06:52;108359.31;;;10.02;67.43
38620;BME280;24376;51.986;4.662;2022-11-15T05:09:17;108372.63;;;10.09;67.31
38620;BME280;24376;51.986;4.662;2022-11-15T05:11:43;108327.59;;;10.06;67.35
38620;BME280;24376;51.986;4.662;2022-11-15T05:14:08;108324.72;;;10.10;67.36
38620;BME280;24376;51.986;4.662;2022-11-15T05:16:33;108311.72;;;10.28;67.20
38620;BME280;24376;51.986;4.662;2022-11-15T05:19:02;108243.50;;;10.34;67.27
38620;BME280;24376;51.986;4.662;2022-11-15T05:21:27;108151.25;;;10.31;67.37
38620;BME280;24376;51.986;4.662;2022-11-15T05:23:52;108065.78;;;10.44;67.38
38620;BME280;24376;51.986;4.662;2022-11-15T05:26:18;107930.38;;;10.45;67.54
38620;BME280;24376;51.986;4.662;2022-11-15T05:28:43;107799.66;;;10.48;67.71
38620;BME280;24376;51.986;4.662;2022-11-15T05:31:13;107604.16;;;10.50;68.17
38620;BME280;24376;51.986;4.662;2022-11-15T05:33:38;107513.69;;;10.53;68.16
38620;BME280;24376;51.986;4.662;2022-11-15T05:36:05;107381.09;;;10.55;68.41
38620;BME280;24376;51.986;4.662;2022-11-15T05:38:32;107228.41;;;10.51;68.81
38620;BME280;24376;51.986;4.662;2022-11-15T05:40:58;107138.84;;;10.48;69.12
38620;BME280;24376;51.986;4.662;2022-11-15T05:43:24;107058.88;;;10.44;69.52
38620;BME280;24376;51.986;4.662;2022-11-15T05:45:49;106959.81;;;10.42;70.11
38620;BME280;24376;51.986;4.662;2022-11-15T05:48:15;106883.59;;;10.47;70.73
38620;BME280;24376;51.986;4.662;2022-11-15T05:50:41;106794.09;;;10.44;71.50
38620;BME280;24376;51.986;4.662;2022-11-15T05:53:07;106737.34;;;10.45;72.12
38620;BME280;24376;51.986;4.662;2022-11-15T05:55:32;106670.69;;;10.43;73.14
38620;BME280;24376;51.986;4.662;2022-11-15T05:57:57;106610.03;;;10.39;74.62
38620;BME280;24376;51.986;4.662;2022-11-15T06:00:23;106565.66;;;10.41;76.10
38620;BME280;24376;51.986;4.662;2022-11-15T06:02:48;106533.25;;;10.41;77.97
38620;BME280;24376;51.986;4.662;2022-11-15T06:05:13;106484.22;;;10.39;80.64
38620;BME280;24376;51.986;4.662;2022-11-15T06:07:38;106423.53;;;10.44;84.61
38620;BME280;24376;51.986;4.662;2022-11-15T06:10:03;106401.03;;;10.46;88.53
38620;BME280;24376;51.986;4.662;2022-11-15T06:12:29;106350.47;;;10.47;94.78
38620;BME280;24376;51.986;4.662;2022-11-15T06:14:54;106316.06;;;10.44;100.00
38620;BME280;24376;51.986;4.662;2022-11-15T06:17:19;106299.22;;;10.42;100.00
38620;BME280;24376;51.986;4.662;2022-11-15T06:19:44;107302.50;;;10.43;70.43
38620;BME280;24376;51.986;4.662;2022-11-15T06:22:09;107112.59;;;10.41;71.13
38620;BME280;24376;51.986;4.662;2022-11-15T06:24:34;107045.38;;;10.41;71.55
38620;BME280;24376;51.986;4.662;2022-11-15T06:27:00;106922.34;;;10.35;72.95
38620;BME280;24376;51.986;4.662;2022-11-15T06:29:25;106833.56;;;10.24;74.23
38620;BME280;24376;51.986;4.662;2022-11-15T06:31:50;106751.56;;;10.18;76.22
38620;BME280;24376;51.986;4.662;2022-11-15T06:34:15;106681.19;;;10.07;78.84
38620;BME280;24376;51.986;4.662;2022-11-15T06:36:41;106618.69;;;9.96;82.09
38620;BME280;24376;51.986;4.662;2022-11-15T06:39:06;106589.31;;;9.91;84.81
38620;BME280;24376;51.986;4.662;2022-11-15T06:41:33;106525.72;;;9.85;91.26
38620;BME280;24376;51.986;4.662;2022-11-15T06:43:58;106497.88;;;9.78;95.79
38620;BME280;24376;51.986;4.662;2022-11-15T06:46:24;106477.13;;;9.80;100.00
38620;BME280;24376;51.986;4.662;2022-11-15T06:48:52;106464.59;;;9.77;100.00
38620;BME280;24376;51.986;4.662;2022-11-15T06:51:17;106452.59;;;9.79;100.00
38620;BME280;24376;51.986;4.662;2022-11-15T06:53:42;106429.78;;;9.78;100.00
38620;BME280;24376;51.986;4.662;2022-11-15T06:56:07;106408.63;;;9.84;100.00
38620;BME280;24376;51.986;4.662;2022-11-15T06:58:34;106397.59;;;9.86;100.00
38620;BME280;24376;51.986;4.662;2022-11-15T07:01:03;106345.06;;;9.78;100.00
38620;BME280;24376;51.986;4.662;2022-11-15T07:06:04;106299.22;;;9.81;100.00
38620;BME280;24376;51.986;4.662;2022-11-15T07:08:30;107010.78;;;9.75;75.51
38620;BME280;24376;51.986;4.662;2022-11-15T07:11:03;107023.47;;;9.72;75.17
38620;BME280;24376;51.986;4.662;2022-11-15T07:13:28;106994.63;;;9.65;75.55
38620;BME280;24376;51.986;4.662;2022-11-15T07:15:56;106983.25;;;9.72;75.97
38620;BME280;24376;51.986;4.662;2022-11-15T07:18:22;106986.06;;;9.73;75.78
38620;BME280;24376;51.986;4.662;2022-11-15T07:20:47;106970.94;;;9.78;76.13
38620;BME280;24376;51.986;4.662;2022-11-15T07:23:12;106932.81;;;9.80;76.90
38620;BME280;24376;51.986;4.662;2022-11-15T07:25:37;106882.50;;;9.82;78.51
38620;BME280;24376;51.986;4.662;2022-11-15T07:28:03;106863.41;;;9.83;79.34
38620;BME280;24376;51.986;4.662;2022-11-15T07:30:28;106819.47;;;9.88;81.03
38620;BME280;24376;51.986;4.662;2022-11-15T07:32:57;106800.72;;;9.85;80.96
38620;BME280;24376;51.986;4.662;2022-11-15T07:35:23;106791.19;;;9.85;81.65
38620;BME280;24376;51.986;4.662;2022-11-15T07:40:19;106760.31;;;9.76;83.16
38620;BME280;24376;51.986;4.662;2022-11-15T07:42:45;106675.03;;;9.64;89.25
38620;BME280;24376;51.986;4.662;2022-11-15T07:45:20;106643.03;;;9.52;91.49
38620;BME280;24376;51.986;4.662;2022-11-15T07:47:46;106619.84;;;9.48;95.41
38620;BME280;24376;51.986;4.662;2022-11-15T07:50:11;106627.28;;;9.38;95.55
38620;BME280;24376;51.986;4.662;2022-11-15T07:52:37;106608.03;;;9.30;98.63
38620;BME280;24376;51.986;4.662;2022-11-15T07:55:02;106593.84;;;9.28;100.00
38620;BME280;24376;51.986;4.662;2022-11-15T07:57:27;106607.84;;;9.28;100.00
38620;BME280;24376;51.986;4.662;2022-11-15T07:59:52;106615.72;;;9.28;100.00
38620;BME280;24376;51.986;4.662;2022-11-15T08:02:18;106616.81;;;9.23;100.00
38620;BME280;24376;51.986;4.662;2022-11-15T08:04:43;106643.91;;;9.24;100.00
38620;BME280;24376;51.986;4.662;2022-11-15T08:07:08;106656.66;;;9.28;100.00
38620;BME280;24376;51.986;4.662;2022-11-15T08:09:34;106662.06;;;9.29;100.00
38620;BME280;24376;51.986;4.662;2022-11-15T08:11:59;106680.38;;;9.29;100.00
38620;BME280;24376;51.986;4.662;2022-11-15T08:14:24;106695.31;;;9.30;99.24
38620;BME280;24376;51.986;4.662;2022-11-15T08:16:49;106712.13;;;9.32;98.06
38620;BME280;24376;51.986;4.662;2022-11-15T08:19:14;106735.34;;;9.37;96.12
38620;BME280;24376;51.986;4.662;2022-11-15T08:21:40;106736.09;;;9.43;96.84
38620;BME280;24376;51.986;4.662;2022-11-15T08:24:05;106783.28;;;9.57;92.23
38620;BME280;24376;51.986;4.662;2022-11-15T08:26:30;106793.03;;;9.65;91.58
38620;BME280;24376;51.986;4.662;2022-11-15T08:28:56;106787.63;;;9.71;90.96
38620;BME280;24376;51.986;4.662;2022-11-15T08:31:21;106812.69;;;9.76;89.55
38620;BME280;24376;51.986;4.662;2022-11-15T08:33:46;106802.06;;;9.81;89.87
38620;BME280;24376;51.986;4.662;2022-11-15T08:36:15;106847.91;;;9.92;86.17
38620;BME280;24376;51.986;4.662;2022-11-15T08:38:40;106812.94;;;9.92;88.13
38620;BME280;24376;51.986;4.662;2022-11-15T08:41:06;106806.94;;;9.93;88.20
38620;BME280;24376;51.986;4.662;2022-11-15T08:43:31;106789.19;;;9.97;88.81
38620;BME280;24376;51.986;4.662;2022-11-15T08:45:57;106781.09;;;9.96;89.25
38620;BME280;24376;51.986;4.662;2022-11-15T08:48:22;106793.66;;;10.05;86.77
38620;BME280;24376;51.986;4.662;2022-11-15T08:50:47;106759.78;;;10.07;89.31
38620;BME280;24376;51.986;4.662;2022-11-15T08:53:12;106716.38;;;10.09;91.30
38620;BME280;24376;51.986;4.662;2022-11-15T08:55:38;106700.25;;;10.13;92.68
38620;BME280;24376;51.986;4.662;2022-11-15T08:58:04;106689.97;;;10.14;92.92
38620;BME280;24376;51.986;4.662;2022-11-15T09:00:29;106658.34;;;10.13;95.75
38620;BME280;24376;51.986;4.662;2022-11-15T09:02:54;106593.59;;;10.12;100.00
38620;BME280;24376;51.986;4.662;2022-11-15T09:05:19;106560.63;;;10.14;100.00
38620;BME280;24376;51.986;4.662;2022-11-15T09:07:45;106475.09;;;10.22;100.00
38620;BME280;24376;51.986;4.662;2022-11-15T09:10:10;106371.19;;;10.29;100.00
38620;BME280;24376;51.986;4.662;2022-11-15T09:12:35;106356.94;;;10.34;100.00
38620;BME280;24376;51.986;4.662;2022-11-15T09:15:00;106261.25;;;10.38;100.00
38620;BME280;24376;51.986;4.662;2022-11-15T09:17:25;106200.28;;;10.48;100.00
38620;BME280;24376;51.986;4.662;2022-11-15T09:19:50;106114.28;;;10.52;100.00
38620;BME280;24376;51.986;4.662;2022-11-15T09:22:16;106012.88;;;10.60;100.00
38620;BME280;24376;51.986;4.662;2022-11-15T09:24:41;105917.00;;;10.62;100.00
38620;BME280;24376;51.986;4.662;2022-11-15T09:27:06;105818.31;;;10.71;100.00
38620;BME280;24376;51.986;4.662;2022-11-15T09:29:31;105707.25;;;10.71;100.00
38620;BME280;24376;51.986;4.662;2022-11-15T09:31:56;105549.03;;;10.79;100.00
38620;BME280;24376;51.986;4.662;2022-11-15T09:34:21;105506.28;;;10.88;100.00
38620;BME280;24376;51.986;4.662;2022-11-15T09:36:47;105359.72;;;10.91;100.00
38620;BME280;24376;51.986;4.662;2022-11-15T09:39:12;105221.31;;;10.98;100.00
38620;BME280;24376;51.986;4.662;2022-11-15T09:46:53;104849.53;;;11.05;100.00
38620;BME280;24376;51.986;4.662;2022-11-15T09:49:21;104723.75;;;11.07;100.00
38620;BME280;24376;51.986;4.662;2022-11-15T09:51:48;104602.84;;;11.14;100.00
38620;BME280;24376;51.986;4.662;2022-11-15T09:56:46;104301.97;;;11.13;100.00
38620;BME280;24376;51.986;4.662;2022-11-15T10:02:18;104037.78;;;11.22;100.00
38620;BME280;24376;51.986;4.662;2022-11-15T10:04:45;103990.09;;;11.28;100.00
38620;BME280;24376;51.986;4.662;2022-11-15T10:07:14;103902.06;;;11.31;100.00
38620;BME280;24376;51.986;4.662;2022-11-15T10:09:54;103808.53;;;11.32;100.00
38620;BME280;24376;51.986;4.662;2022-11-15T10:12:22;103720.56;;;11.37;100.00
38620;BME280;24376;51.986;4.662;2022-11-15T10:14:48;103658.50;;;11.37;100.00
38620;BME280;24376;51.986;4.662;2022-11-15T10:17:21;103604.91;;;11.47;100.00
38620;BME280;24376;51.986;4.662;2022-11-15T10:24:53;103420.50;;;11.63;100.00
38620;BME280;24376;51.986;4.662;2022-11-15T10:27:23;103363.97;;;11.68;100.00
38620;BME280;24376;51.986;4.662;2022-11-15T10:29:49;103318.88;;;11.75;100.00
38620;BME280;24376;51.986;4.662;2022-11-15T10:32:15;103253.19;;;11.73;100.00
38620;BME280;24376;51.986;4.662;2022-11-15T10:34:41;103173.91;;;11.79;100.00
38620;BME280;24376;51.986;4.662;2022-11-15T10:37:06;103115.16;;;11.92;100.00
38620;BME280;24376;51.986;4.662;2022-11-15T10:39:31;102981.34;;;11.93;100.00
38620;BME280;24376;51.986;4.662;2022-11-15T10:41:58;102908.25;;;12.01;100.00
38620;BME280;24376;51.986;4.662;2022-11-15T10:44:43;102824.44;;;12.06;100.00
38620;BME280;24376;51.986;4.662;2022-11-15T10:50:05;102567.88;;;12.03;100.00
38620;BME280;24376;51.986;4.662;2022-11-15T10:52:31;102475.22;;;12.06;100.00
38620;BME280;24376;51.986;4.662;2022-11-15T10:54:59;102391.97;;;12.03;100.00
38620;BME280;24376;51.986;4.662;2022-11-15T10:57:27;102314.16;;;12.05;100.00
38620;BME280;24376;51.986;4.662;2022-11-15T11:00:04;102222.88;;;11.98;100.00
38620;BME280;24376;51.986;4.662;2022-11-15T11:02:40;102145.19;;;12.03;100.00
38620;BME280;24376;51.986;4.662;2022-11-15T11:08:01;101978.22;;;12.07;100.00
38620;BME280;24376;51.986;4.662;2022-11-15T11:10:27;101919.16;;;12.19;100.00
38620;BME280;24376;51.986;4.662;2022-11-15T11:12:52;101855.50;;;12.27;100.00
38620;BME280;24376;51.986;4.662;2022-11-15T11:15:18;101786.59;;;12.34;100.00
38620;BME280;24376;51.986;4.662;2022-11-15T11:17:51;101709.94;;;12.45;100.00
38620;BME280;24376;51.986;4.662;2022-11-15T11:20:35;101600.06;;;12.31;100.00
38620;BME280;24376;51.986;4.662;2022-11-15T11:31:04;101244.41;;;12.56;100.00
38620;BME280;24376;51.986;4.662;2022-11-15T11:33:38;101186.00;;;12.66;100.00
38620;BME280;24376;51.986;4.662;2022-11-15T11:36:24;101147.44;;;12.65;100.00
38620;BME280;24376;51.986;4.662;2022-11-15T11:38:55;101139.69;;;12.71;100.00
38620;BME280;24376;51.986;4.662;2022-11-15T11:49:02;101053.78;;;12.67;100.00
38620;BME280;24376;51.986;4.662;2022-11-15T11:51:38;101064.59;;;12.82;100.00
38620;BME280;24376;51.986;4.662;2022-11-15T11:54:06;101053.16;;;12.80;100.00
38620;BME280;24376;51.986;4.662;2022-11-15T11:56:37;101024.50;;;12.92;100.00
38620;BME280;24376;51.986;4.662;2022-11-15T11:59:16;100989.72;;;13.05;100.00
38620;BME280;24376;51.986;4.662;2022-11-15T12:01:44;100998.63;;;13.14;100.00
38620;BME280;24376;51.986;4.662;2022-11-15T12:04:27;100915.59;;;13.26;100.00
38620;BME280;24376;51.986;4.662;2022-11-15T12:06:56;100874.56;;;13.36;100.00
38620;BME280;24376;51.986;4.662;2022-11-15T12:12:00;100775.59;;;13.44;100.00
38620;BME280;24376;51.986;4.662;2022-11-15T12:14:42;100731.16;;;13.66;100.00
38620;BME280;24376;51.986;4.662;2022-11-15T12:17:09;100671.38;;;13.52;100.00
38620;BME280;24376;51.986;4.662;2022-11-15T12:19:35;100660.09;;;13.63;100.00
38620;BME280;24376;51.986;4.662;2022-11-15T12:22:19;100581.16;;;13.64;100.00
38620;BME280;24376;51.986;4.662;2022-11-15T12:24:48;100296.19;;;13.79;100.00
38620;BME280;24376;51.986;4.662;2022-11-15T12:27:24;100256.75;;;13.82;100.00
38620;BME280;24376;51.986;4.662;2022-11-15T12:29:54;100205.88;;;13.80;100.00
38620;BME280;24376;51.986;4.662;2022-11-15T12:34:47;100061.16;;;13.92;100.00
38620;BME280;24376;51.986;4.662;2022-11-15T12:37:32;99991.84;;;14.04;100.00
38620;BME280;24376;51.986;4.662;2022-11-15T12:40:20;99934.78;;;14.15;100.00
38620;BME280;24376;51.986;4.662;2022-11-15T12:45:31;99835.50;;;14.31;100.00
38620;BME280;24376;51.986;4.662;2022-11-15T12:55:46;99740.13;;;13.86;100.00
38620;BME280;24376;51.986;4.662;2022-11-15T13:01:06;99805.09;;;13.50;100.00
38620;BME280;24376;51.986;4.662;2022-11-15T13:03:32;99854.22;;;13.44;100.00
38620;BME280;24376;51.986;4.662;2022-11-15T13:05:58;99938.38;;;13.42;100.00
38620;BME280;24376;51.986;4.662;2022-11-15T13:08:43;100000.56;;;13.26;100.00
38620;BME280;24376;51.986;4.662;2022-11-15T13:13:55;100111.84;;;13.21;100.00
38620;BME280;24376;51.986;4.662;2022-11-15T13:16:21;100103.13;;;13.25;100.00
38620;BME280;24376;51.986;4.662;2022-11-15T13:18:55;100095.16;;;13.13;100.00
38620;BME280;24376;51.986;4.662;2022-11-15T13:21:23;100029.44;;;13.13;100.00
38620;BME280;24376;51.986;4.662;2022-11-15T13:24:14;99981.25;;;13.11;100.00
38620;BME280;24376;51.986;4.662;2022-11-15T13:26:40;99971.63;;;13.13;100.00
38620;BME280;24376;51.986;4.662;2022-11-15T13:29:14;99968.09;;;13.08;100.00
38620;BME280;24376;51.986;4.662;2022-11-15T13:31:40;99961.94;;;13.04;100.00
38620;BME280;24376;51.986;4.662;2022-11-15T13:34:26;99952.31;;;12.95;100.00
38620;BME280;24376;51.986;4.662;2022-11-15T13:36:52;99931.28;;;12.97;100.00
38620;BME280;24376;51.986;4.662;2022-11-15T13:41:52;99863.81;;;12.85;100.00
38620;BME280;24376;51.986;4.662;2022-11-15T13:44:19;99852.44;;;12.92;100.00
38620;BME280;24376;51.986;4.662;2022-11-15T13:46:44;99845.44;;;12.93;100.00
38620;BME280;24376;51.986;4.662;2022-11-15T13:49:10;99877.84;;;12.89;100.00
38620;BME280;24376;51.986;4.662;2022-11-15T13:54:10;99933.00;;;12.86;100.00
38620;BME280;24376;51.986;4.662;2022-11-15T13:56:42;99987.31;;;12.90;100.00
38620;BME280;24376;51.986;4.662;2022-11-15T13:59:17;100018.78;;;12.74;100.00
38620;BME280;24376;51.986;4.662;2022-11-15T14:01:45;100059.06;;;12.75;100.00
38620;BME280;24376;51.986;4.662;2022-11-15T14:04:11;100094.09;;;12.71;100.00
38620;BME280;24376;51.986;4.662;2022-11-15T14:06:43;100113.31;;;12.67;100.00
38620;BME280;24376;51.986;4.662;2022-11-15T14:11:34;100174.56;;;12.63;100.00
38620;BME280;24376;51.986;4.662;2022-11-15T14:19:06;100186.84;;;12.64;100.00
38620;BME280;24376;51.986;4.662;2022-11-15T14:21:32;100192.09;;;12.64;100.00
38620;BME280;24376;51.986;4.662;2022-11-15T14:26:41;100174.56;;;12.63;100.00
38620;BME280;24376;51.986;4.662;2022-11-15T14:31:47;100183.28;;;12.56;100.00
38620;BME280;24376;51.986;4.662;2022-11-15T14:34:12;100202.53;;;12.58;100.00
38620;BME280;24376;51.986;4.662;2022-11-15T14:36:37;100217.38;;;12.49;100.00
38620;BME280;24376;51.986;4.662;2022-11-15T14:39:02;100257.66;;;12.50;100.00